Terminal Aerodrome Forecast
Issued by NWS Grand Forks, ND

Home | Current Version | Previous Version | Graphics & Text | Print | Product List | Glossary On
Versions: 1 2 3 4 5 6 7 8 9 10 11 12 13 14 15 16 17
616
FTUS43 KFGF 241121
TAFFAR
TAF
KFAR 241121Z 2412/2512 36013KT P6SM BKN250
     FM242000 35019G27KT P6SM SCT090
     FM250100 35011KT P6SM SCT150
     FM251100 27006KT P6SM SCT060=

USA.gov is the U.S. government's official web portal to all federal, state and local government web resources and services.